Time;durP1;ratioP1;P1;durP2;ratioP2;P2;SDS_P1;SDS_P2;PMS_P1;PMS_P2;Temp;Humidity;BMP_temperature;BMP_pressure;BME280_temperature;BME280_humidity;BME280_pressure;Samples;Min_cycle;Max_cycle;Signal;HPM_P1;HPM_P2
2024/01/27 00:00:53;;;;;;;3.93;1.23;;;8.20;70.60;6.60;97834.00;;;;5073443;28;20336;-81
2024/01/27 00:03:20;;;;;;;3.43;1.20;;;8.20;70.60;6.60;97845.00;;;;5072192;28;20287;-81
2024/01/27 00:05:48;;;;;;;2.50;1.00;;;8.20;70.70;6.60;97849.00;;;;5068141;28;20212;-81
2024/01/27 00:08:16;;;;;;;4.53;1.30;;;8.20;70.80;6.60;97855.00;;;;5072379;28;20199;-81
2024/01/27 00:10:45;;;;;;;2.73;1.40;;;8.20;70.70;6.60;97854.00;;;;5071842;28;20224;-81
2024/01/27 00:13:13;;;;;;;1.27;1.10;;;8.20;70.90;6.60;97854.00;;;;5072829;28;20192;-81
2024/01/27 00:15:40;;;;;;;5.20;1.40;;;8.10;71.50;6.50;97866.00;;;;5072714;28;20227;-81
2024/01/27 00:18:07;;;;;;;7.20;1.47;;;8.10;70.80;6.50;97867.00;;;;5072960;28;20257;-82
2024/01/27 00:20:34;;;;;;;4.13;1.10;;;8.10;70.70;6.50;97872.00;;;;5073020;28;20691;-82
2024/01/27 00:23:01;;;;;;;2.10;1.07;;;8.10;70.70;6.50;97871.00;;;;5072850;28;20668;-82
2024/01/27 00:25:29;;;;;;;5.00;1.10;;;8.10;70.60;6.50;97869.00;;;;5073682;28;20192;-82
2024/01/27 00:27:57;;;;;;;5.07;1.10;;;7.90;71.10;6.40;97870.00;;;;5071837;28;20202;-82
2024/01/27 00:30:25;;;;;;;2.70;1.07;;;8.00;70.50;6.40;97877.00;;;;5070901;28;20309;-81
2024/01/27 00:32:55;;;;;;;8.90;1.07;;;8.00;70.50;6.40;97872.00;;;;5071200;28;20675;-82
2024/01/27 00:35:22;;;;;;;3.13;0.90;;;8.00;70.60;6.40;97870.00;;;;5071734;28;20553;-82
2024/01/27 00:37:50;;;;;;;5.30;0.87;;;8.00;70.80;6.40;97874.00;;;;5053602;28;20820;-82
2024/01/27 00:40:20;;;;;;;1.53;0.73;;;8.00;70.90;6.40;97862.00;;;;5069078;28;20220;-82
2024/01/27 00:42:48;;;;;;;2.07;1.00;;;7.90;70.60;6.30;97861.00;;;;5070958;28;20204;-81
2024/01/27 00:45:16;;;;;;;1.60;1.37;;;7.90;70.60;6.30;97862.00;;;;5070748;28;20291;-82
2024/01/27 00:47:44;;;;;;;2.90;1.00;;;7.90;70.60;6.30;97868.00;;;;5069143;28;20196;-82
2024/01/27 00:50:11;;;;;;;1.07;0.87;;;7.90;70.60;6.20;97875.00;;;;5070900;28;20211;-82
2024/01/27 00:52:38;;;;;;;2.03;0.80;;;7.90;70.60;6.20;97874.00;;;;5069245;28;20704;-82
2024/01/27 00:55:07;;;;;;;4.63;1.10;;;7.80;70.60;6.20;97878.00;;;;5072247;28;20295;-81
2024/01/27 00:57:34;;;;;;;2.90;0.87;;;7.80;70.50;6.20;97890.00;;;;5070309;28;20219;-81
2024/01/27 01:00:01;;;;;;;2.40;1.10;;;7.80;70.60;6.20;97888.00;;;;5072548;28;20822;-82
2024/01/27 01:02:30;;;;;;;3.20;1.17;;;7.70;70.60;6.10;97894.00;;;;5074781;28;20199;-82
2024/01/27 01:04:57;;;;;;;1.53;1.03;;;7.70;70.60;6.10;97888.00;;;;5072129;28;20326;-82
2024/01/27 01:07:24;;;;;;;12.97;1.77;;;7.70;70.80;6.10;97893.00;;;;5071250;28;20228;-82
2024/01/27 01:09:52;;;;;;;2.57;1.13;;;7.70;70.80;6.10;97891.00;;;;5071863;28;20834;-81
2024/01/27 01:12:19;;;;;;;1.93;1.00;;;7.70;71.00;6.10;97894.00;;;;5071758;28;20724;-82
2024/01/27 01:14:46;;;;;;;1.80;1.03;;;7.70;71.00;6.10;97897.00;;;;5071749;28;20231;-81
2024/01/27 01:17:14;;;;;;;12.30;1.73;;;7.70;70.90;6.10;97901.00;;;;5071511;28;20700;-82
2024/01/27 01:19:43;;;;;;;4.73;1.10;;;7.60;70.80;6.00;97900.00;;;;5071710;28;20211;-82
2024/01/27 01:22:10;;;;;;;2.17;0.93;;;7.60;70.80;6.00;97895.00;;;;5070195;28;20199;-82
2024/01/27 01:24:37;;;;;;;1.40;1.10;;;7.60;70.80;6.00;97896.00;;;;5071927;28;20192;-82
2024/01/27 01:27:06;;;;;;;2.40;0.90;;;7.60;70.80;6.00;97903.00;;;;5070501;28;20287;-81
2024/01/27 01:29:33;;;;;;;5.33;1.17;;;7.60;71.50;5.90;97905.00;;;;5070960;28;20672;-82
2024/01/27 01:32:02;;;;;;;8.00;1.20;;;7.50;70.80;5.90;97908.00;;;;5069833;28;20215;-81
2024/01/27 01:34:29;;;;;;;2.13;1.30;;;7.50;70.90;5.90;97910.00;;;;5070031;28;20195;-82
2024/01/27 01:36:58;;;;;;;1.47;0.97;;;7.50;71.00;5.90;97913.00;;;;5069585;28;20208;-82
2024/01/27 01:39:25;;;;;;;2.13;1.57;;;7.50;71.00;5.90;97904.00;;;;5069683;28;20918;-82
2024/01/27 01:41:52;;;;;;;4.07;0.90;;;7.50;71.00;5.90;97904.00;;;;5068338;28;20199;-81
2024/01/27 01:44:20;;;;;;;2.70;1.10;;;7.50;71.10;5.90;97911.00;;;;5069760;28;20196;-82
2024/01/27 01:46:47;;;;;;;2.47;1.10;;;7.50;71.10;5.80;97910.00;;;;5067782;28;20184;-82
2024/01/27 01:49:14;;;;;;;11.60;1.50;;;7.40;71.10;5.80;97910.00;;;;5070689;28;20303;-82
2024/01/27 01:51:42;;;;;;;7.87;1.43;;;7.40;71.10;5.80;97917.00;;;;5069749;28;20660;-82
2024/01/27 01:54:12;;;;;;;4.43;1.17;;;7.50;71.20;5.80;97911.00;;;;5070125;28;20215;-82
2024/01/27 01:56:39;;;;;;;2.50;1.20;;;7.40;71.10;5.80;97906.00;;;;5070559;28;20188;-82
2024/01/27 01:59:07;;;;;;;2.03;1.20;;;7.40;71.10;5.70;97914.00;;;;5071490;28;20298;-82
2024/01/27 02:01:34;;;;;;;3.27;1.40;;;7.40;71.00;5.70;97922.00;;;;5069823;28;20192;-82
2024/01/27 02:04:01;;;;;;;18.03;1.70;;;7.40;71.10;5.70;97917.00;;;;5071528;28;20216;-82
2024/01/27 02:06:28;;;;;;;2.47;1.07;;;7.30;71.00;5.70;97928.00;;;;5071379;28;20233;-82
2024/01/27 02:08:55;;;;;;;5.77;1.30;;;7.30;71.30;5.60;97921.00;;;;5067529;28;20216;-82
2024/01/27 02:11:24;;;;;;;2.17;1.00;;;7.30;71.10;5.60;97934.00;;;;5064437;28;20212;-82
2024/01/27 02:13:51;;;;;;;1.63;1.00;;;7.30;71.10;5.60;97927.00;;;;5066549;28;20702;-82
2024/01/27 02:16:18;;;;;;;2.40;1.20;;;7.30;71.20;5.60;97931.00;;;;5070514;28;20192;-82
2024/01/27 02:18:49;;;;;;;2.00;0.90;;;7.20;71.10;5.60;97936.00;;;;5069814;28;20246;-82
2024/01/27 02:21:16;;;;;;;1.97;1.10;;;7.20;71.10;5.60;97943.00;;;;5068610;28;20215;-82
2024/01/27 02:23:43;;;;;;;2.27;0.87;;;7.20;71.10;5.60;97938.00;;;;5069953;28;20195;-82
2024/01/27 02:26:12;;;;;;;2.97;1.00;;;7.20;71.20;5.60;97932.00;;;;5071263;28;20871;-82
2024/01/27 02:28:39;;;;;;;3.00;1.20;;;7.20;71.30;5.60;97930.00;;;;5070079;28;20219;-82
2024/01/27 02:31:06;;;;;;;1.50;1.07;;;7.20;71.30;5.50;97933.00;;;;5069243;28;20216;-82
2024/01/27 02:33:34;;;;;;;1.50;1.20;;;7.20;71.40;5.60;97941.00;;;;5069170;28;20273;-81
2024/01/27 02:36:01;;;;;;;1.20;0.87;;;7.10;71.30;5.50;97942.00;;;;5068152;28;20219;-82
2024/01/27 02:38:28;;;;;;;1.43;0.93;;;7.20;71.40;5.50;97937.00;;;;5069408;28;20253;-82
2024/01/27 02:40:58;;;;;;;1.80;1.07;;;7.20;71.50;5.50;97942.00;;;;5067771;28;20192;-82
2024/01/27 02:43:29;;;;;;;2.83;1.00;;;7.20;71.30;5.50;97939.00;;;;5069453;28;20254;-82
2024/01/27 02:45:57;;;;;;;1.50;1.00;;;7.20;71.30;5.50;97936.00;;;;5068322;28;20270;-81
2024/01/27 02:48:24;;;;;;;3.83;1.20;;;7.20;72.20;5.50;97939.00;;;;5071045;28;20189;-82
2024/01/27 02:50:51;;;;;;;3.67;1.40;;;7.10;72.00;5.50;97942.00;;;;5071221;28;20242;-82
2024/01/27 02:53:18;;;;;;;1.10;1.00;;;7.10;71.40;5.50;97946.00;;;;5070908;28;20239;-82
2024/01/27 02:55:45;;;;;;;2.97;1.03;;;7.10;71.40;5.50;97948.00;;;;5070858;28;20638;-82
2024/01/27 02:58:13;;;;;;;1.63;1.17;;;7.10;71.30;5.50;97957.00;;;;5072883;28;20194;-82
2024/01/27 03:00:41;;;;;;;2.60;1.07;;;7.10;71.40;5.50;97956.00;;;;5073510;28;20705;-82
2024/01/27 03:03:08;;;;;;;2.37;0.93;;;7.10;71.30;5.50;97964.00;;;;5076986;28;20228;-81
2024/01/27 03:05:35;;;;;;;2.53;1.10;;;7.10;71.20;5.50;97971.00;;;;5074655;28;20618;-82
2024/01/27 03:08:03;;;;;;;2.47;1.00;;;7.20;71.30;5.50;97965.00;;;;5073488;28;20196;-82
2024/01/27 03:10:31;;;;;;;5.17;1.17;;;7.10;71.40;5.50;97964.00;;;;5074259;28;20258;-82
2024/01/27 03:12:58;;;;;;;9.77;1.70;;;7.10;71.40;5.50;97963.00;;;;5074121;28;20223;-82
2024/01/27 03:15:25;;;;;;;2.53;0.83;;;7.10;71.50;5.50;97965.00;;;;5069677;28;20710;-81
2024/01/27 03:17:55;;;;;;;2.67;1.03;;;7.10;71.50;5.50;97969.00;;;;5073050;28;20775;-82
2024/01/27 03:20:22;;;;;;;2.20;0.93;;;7.10;71.40;5.50;97971.00;;;;5073605;28;20215;-82
2024/01/27 03:22:49;;;;;;;5.77;1.00;;;7.10;71.40;5.50;97979.00;;;;5067237;28;20200;-82
2024/01/27 03:25:16;;;;;;;2.90;1.30;;;7.10;72.00;5.50;97983.00;;;;5072993;28;20287;-82
2024/01/27 03:27:44;;;;;;;1.77;0.93;;;7.10;71.30;5.50;97980.00;;;;5072280;28;20200;-82
2024/01/27 03:30:12;;;;;;;6.63;1.30;;;7.10;71.20;5.50;97983.00;;;;5070878;28;20302;-82
2024/01/27 03:32:40;;;;;;;5.73;1.20;;;7.00;71.10;5.40;97983.00;;;;5072141;28;20291;-82
2024/01/27 03:35:09;;;;;;;3.73;1.27;;;7.10;71.20;5.40;97994.00;;;;5072573;28;20279;-82
2024/01/27 03:37:37;;;;;;;3.67;1.57;;;7.10;71.10;5.40;97986.00;;;;5069534;28;20261;-82
2024/01/27 03:40:05;;;;;;;2.80;0.90;;;7.10;71.20;5.40;97989.00;;;;5071039;28;20684;-82
2024/01/27 03:42:32;;;;;;;2.83;1.10;;;7.10;71.30;5.40;97989.00;;;;5073728;28;20674;-82
2024/01/27 03:44:59;;;;;;;3.93;1.10;;;7.00;71.10;5.40;98000.00;;;;5072498;28;20196;-82
2024/01/27 03:47:26;;;;;;;1.97;1.00;;;7.00;71.10;5.30;97998.00;;;;5069550;28;20644;-82
2024/01/27 03:49:54;;;;;;;2.30;1.00;;;7.00;71.10;5.30;98002.00;;;;5073462;28;20208;-82
2024/01/27 03:52:23;;;;;;;2.10;1.00;;;7.00;71.10;5.30;97999.00;;;;5071264;28;20315;-82
2024/01/27 03:54:51;;;;;;;1.70;0.90;;;7.00;71.10;5.30;98010.00;;;;5072619;28;20192;-82
2024/01/27 03:57:18;;;;;;;3.77;1.00;;;7.00;71.10;5.30;98007.00;;;;5073486;28;20196;-82
2024/01/27 03:59:45;;;;;;;0.93;0.90;;;7.00;71.10;5.30;98011.00;;;;5073058;28;20319;-82
2024/01/27 04:02:12;;;;;;;8.47;1.50;;;7.00;71.10;5.30;98005.00;;;;5076208;28;20274;-82
2024/01/27 04:04:39;;;;;;;4.67;1.40;;;6.90;71.10;5.30;98009.00;;;;5076550;28;20194;-82
2024/01/27 04:07:07;;;;;;;2.03;1.00;;;6.90;71.10;5.30;98014.00;;;;5073168;28;20700;-82
2024/01/27 04:09:35;;;;;;;2.00;1.00;;;6.90;71.10;5.30;98025.00;;;;5072461;28;20327;-82
2024/01/27 04:12:03;;;;;;;3.17;1.13;;;6.90;71.70;5.20;98012.00;;;;5072017;28;20799;-82
2024/01/27 04:14:30;;;;;;;2.57;1.00;;;6.90;71.10;5.20;98017.00;;;;5072916;28;20200;-82
2024/01/27 04:16:57;;;;;;;2.63;1.10;;;7.00;71.20;5.20;98016.00;;;;5072601;28;20187;-82
2024/01/27 04:19:24;;;;;;;3.07;0.87;;;6.90;71.10;5.20;98009.00;;;;5072663;28;20327;-82
2024/01/27 04:21:52;;;;;;;3.20;0.97;;;6.90;71.80;5.20;98015.00;;;;5071537;28;20684;-82
2024/01/27 04:24:19;;;;;;;1.43;1.03;;;6.90;71.20;5.20;98015.00;;;;5065369;28;20287;-82
2024/01/27 04:26:48;;;;;;;2.00;1.03;;;6.90;71.10;5.20;98010.00;;;;5067211;28;20231;-82
2024/01/27 04:29:15;;;;;;;2.37;1.00;;;6.80;70.90;5.20;98018.00;;;;5068169;28;20235;-82
2024/01/27 04:31:42;;;;;;;9.87;1.33;;;6.80;71.00;5.10;98022.00;;;;5066276;28;20299;-83
2024/01/27 04:34:09;;;;;;;2.70;1.30;;;6.80;71.00;5.10;98029.00;;;;5066772;28;20223;-82
2024/01/27 04:36:37;;;;;;;9.93;1.53;;;6.80;71.10;5.10;98040.00;;;;5069209;28;20279;-82
2024/01/27 04:39:05;;;;;;;2.63;1.03;;;6.80;71.10;5.10;98038.00;;;;5069886;28;20200;-82
2024/01/27 04:41:32;;;;;;;2.93;1.30;;;6.70;71.10;5.10;98044.00;;;;5071488;28;20665;-82
2024/01/27 04:44:00;;;;;;;5.13;1.30;;;6.70;71.00;5.00;98041.00;;;;5071501;28;20276;-82
2024/01/27 04:46:28;;;;;;;2.50;1.10;;;6.70;71.10;5.00;98039.00;;;;5072176;28;20279;-82
2024/01/27 04:48:56;;;;;;;2.70;1.23;;;6.70;71.10;5.00;98047.00;;;;5072700;28;20299;-82
2024/01/27 04:51:23;;;;;;;3.03;1.13;;;6.70;71.10;5.00;98048.00;;;;5071539;28;20278;-82
2024/01/27 04:53:51;;;;;;;3.20;1.23;;;6.70;71.10;5.00;98036.00;;;;5071011;28;20299;-82
2024/01/27 04:56:18;;;;;;;1.73;1.13;;;6.70;71.80;5.00;98049.00;;;;5072515;28;20768;-82
2024/01/27 04:58:46;;;;;;;3.20;1.20;;;6.70;71.00;4.90;98041.00;;;;5072268;28;20644;-82
2024/01/27 05:01:14;;;;;;;4.10;1.37;;;6.60;71.00;4.90;98052.00;;;;5069832;28;20211;-81
2024/01/27 05:03:41;;;;;;;1.43;0.97;;;6.60;71.00;4.90;98043.00;;;;5070113;28;20196;-82
2024/01/27 05:06:09;;;;;;;2.47;1.00;;;6.60;71.00;4.80;98047.00;;;;5072693;28;20189;-82
2024/01/27 05:08:37;;;;;;;3.07;1.23;;;6.60;70.90;4.80;98049.00;;;;5071007;28;20204;-82
2024/01/27 05:11:04;;;;;;;2.03;1.10;;;6.60;71.00;4.80;98041.00;;;;5072176;28;20188;-82
2024/01/27 05:13:31;;;;;;;3.40;1.27;;;6.50;71.00;4.80;98046.00;;;;5069840;28;20208;-82
2024/01/27 05:15:58;;;;;;;3.53;1.30;;;6.50;70.90;4.70;98056.00;;;;5070511;28;20246;-82
2024/01/27 05:18:27;;;;;;;4.07;1.93;;;6.50;71.00;4.70;98054.00;;;;5069577;28;20271;-82
2024/01/27 05:20:54;;;;;;;6.87;1.30;;;6.50;70.90;4.70;98054.00;;;;5069595;28;20192;-82
2024/01/27 05:23:21;;;;;;;1.93;1.40;;;6.40;70.90;4.70;98049.00;;;;5067764;28;20223;-82
2024/01/27 05:25:48;;;;;;;8.87;1.50;;;6.40;71.00;4.70;98057.00;;;;5069628;28;20806;-82
2024/01/27 05:28:15;;;;;;;14.53;1.83;;;6.40;71.10;4.60;98054.00;;;;5069237;28;20279;-82
2024/01/27 05:30:43;;;;;;;6.73;1.60;;;6.40;71.20;4.60;98059.00;;;;5071617;28;20231;-81
2024/01/27 05:33:10;;;;;;;5.57;1.60;;;6.40;71.30;4.60;98050.00;;;;5070041;28;20298;-82
2024/01/27 05:35:39;;;;;;;8.57;1.60;;;6.40;71.30;4.60;98067.00;;;;5054440;28;20188;-82
2024/01/27 05:38:06;;;;;;;2.43;1.33;;;6.40;71.30;4.60;98069.00;;;;5071297;28;20219;-81
2024/01/27 05:40:34;;;;;;;2.60;1.20;;;6.30;71.40;4.60;98065.00;;;;5070318;28;20306;-81
2024/01/27 05:43:02;;;;;;;1.53;1.30;;;6.30;71.40;4.60;98076.00;;;;5071570;28;20188;-81
2024/01/27 05:45:31;;;;;;;3.97;1.73;;;6.30;71.30;4.50;98081.00;;;;5071792;28;20288;-82
2024/01/27 05:47:58;;;;;;;8.83;1.47;;;6.30;71.30;4.50;98084.00;;;;5071894;28;20559;-82
2024/01/27 05:50:25;;;;;;;6.13;1.70;;;6.30;71.40;4.50;98082.00;;;;5067941;28;20313;-82
2024/01/27 05:52:54;;;;;;;3.90;1.70;;;6.30;71.50;4.50;98081.00;;;;5069026;28;20299;-83
2024/01/27 05:55:21;;;;;;;3.90;1.60;;;6.30;71.40;4.40;98099.00;;;;5071890;28;20203;-81
2024/01/27 05:57:48;;;;;;;6.27;1.63;;;6.20;71.40;4.50;98091.00;;;;5071540;28;20207;-82
2024/01/27 06:00:16;;;;;;;4.07;1.83;;;6.20;71.50;4.40;98098.00;;;;5071565;28;20235;-82
2024/01/27 06:02:43;;;;;;;2.07;1.70;;;6.20;71.50;4.40;98094.00;;;;5074156;28;20278;-81
2024/01/27 06:05:11;;;;;;;2.30;1.40;;;6.20;71.50;4.40;98097.00;;;;5071199;28;20280;-82
2024/01/27 06:07:39;;;;;;;2.70;1.60;;;6.20;71.70;4.40;98108.00;;;;5070827;28;20286;-82
2024/01/27 06:10:10;;;;;;;3.17;1.60;;;6.10;71.60;4.40;98114.00;;;;5070018;28;20196;-82
2024/01/27 06:12:41;;;;;;;8.80;1.87;;;6.10;71.60;4.40;98110.00;;;;5069899;28;20293;-82
2024/01/27 06:15:10;;;;;;;8.93;2.10;;;6.10;71.80;4.40;98112.00;;;;5069423;28;20208;-82
2024/01/27 06:17:37;;;;;;;13.97;3.90;;;6.10;71.90;4.40;98115.00;;;;5069287;28;20200;-82
2024/01/27 06:20:06;;;;;;;6.20;3.30;;;6.10;72.00;4.40;98123.00;;;;5068379;28;20208;-82
2024/01/27 06:22:33;;;;;;;11.53;2.90;;;6.10;72.00;4.40;98123.00;;;;5070041;28;20196;-82
2024/01/27 06:25:01;;;;;;;16.87;2.90;;;6.10;71.90;4.40;98121.00;;;;5065546;28;20199;-82
2024/01/27 06:27:30;;;;;;;4.67;2.30;;;6.00;71.90;4.40;98126.00;;;;5066106;28;20283;-82
2024/01/27 06:29:56;;;;;;;7.53;2.03;;;6.10;72.00;4.40;98118.00;;;;5065790;28;20217;-81
2024/01/27 06:32:23;;;;;;;3.57;1.70;;;6.20;72.00;4.40;98120.00;;;;5073252;28;20192;-81
2024/01/27 06:34:50;;;;;;;4.13;1.83;;;6.10;71.80;4.40;98120.00;;;;5070402;28;20219;-82
2024/01/27 06:37:17;;;;;;;2.07;1.87;;;6.10;71.70;4.40;98126.00;;;;5075159;28;20216;-81
2024/01/27 06:39:44;;;;;;;3.70;2.00;;;6.10;71.70;4.30;98125.00;;;;5074723;28;20701;-82
2024/01/27 06:42:12;;;;;;;1.90;1.70;;;6.10;71.80;4.30;98136.00;;;;5074674;28;20305;-82
2024/01/27 06:44:40;;;;;;;5.97;1.97;;;6.10;71.80;4.30;98133.00;;;;5074904;28;20211;-82
2024/01/27 06:47:07;;;;;;;3.17;1.90;;;6.10;71.80;4.30;98126.00;;;;5074540;28;20176;-82
2024/01/27 06:49:35;;;;;;;3.83;2.00;;;6.10;71.80;4.30;98141.00;;;;5073227;28;20211;-82
2024/01/27 06:52:02;;;;;;;6.90;2.47;;;6.00;71.80;4.30;98138.00;;;;5056905;28;20214;-82
2024/01/27 06:54:29;;;;;;;2.73;2.07;;;6.00;71.80;4.30;98138.00;;;;5073394;28;20208;-81
2024/01/27 06:56:56;;;;;;;3.73;2.20;;;6.00;71.80;4.20;98130.00;;;;5074969;28;20184;-82
2024/01/27 06:59:23;;;;;;;3.17;1.90;;;6.00;71.90;4.20;98134.00;;;;5074590;28;20208;-82
2024/01/27 07:01:52;;;;;;;2.87;2.37;;;6.00;72.00;4.20;98134.00;;;;5071012;28;20271;-81
2024/01/27 07:04:19;;;;;;;5.77;2.37;;;6.00;72.00;4.20;98121.00;;;;5074228;28;20189;-82
2024/01/27 07:06:46;;;;;;;8.00;3.97;;;6.00;72.00;4.20;98124.00;;;;5074568;28;20678;-82
2024/01/27 07:09:14;;;;;;;7.93;3.40;;;6.10;72.00;4.20;98129.00;;;;5055248;28;20786;-82
2024/01/27 07:11:41;;;;;;;3.40;2.33;;;6.00;72.10;4.20;98133.00;;;;5072766;28;20219;-83
2024/01/27 07:14:09;;;;;;;4.73;2.30;;;6.00;72.20;4.20;98140.00;;;;5071047;28;20200;-82
2024/01/27 07:16:36;;;;;;;2.57;2.07;;;6.00;72.20;4.20;98147.00;;;;5072505;28;20231;-82
2024/01/27 07:19:04;;;;;;;5.60;3.27;;;6.10;72.40;4.20;98156.00;;;;5072531;28;20286;-82
2024/01/27 07:21:32;;;;;;;5.40;2.90;;;6.00;72.30;4.20;98144.00;;;;5072685;28;20212;-82
2024/01/27 07:23:59;;;;;;;3.17;2.83;;;6.00;72.40;4.20;98149.00;;;;5072924;28;20292;-81
2024/01/27 07:26:26;;;;;;;6.83;3.23;;;6.00;72.40;4.30;98152.00;;;;5056616;28;20222;-82
2024/01/27 07:28:53;;;;;;;7.80;2.97;;;6.00;72.50;4.30;98149.00;;;;5063966;28;20212;-81
2024/01/27 07:31:24;;;;;;;5.03;2.63;;;6.00;72.60;4.30;98150.00;;;;5073206;28;20232;-82
2024/01/27 07:33:51;;;;;;;4.30;2.80;;;6.00;72.50;4.30;98151.00;;;;5074036;28;20741;-82
2024/01/27 07:36:20;;;;;;;13.80;2.67;;;6.00;72.60;4.30;98147.00;;;;5074097;28;20737;-82
2024/01/27 07:38:47;;;;;;;4.83;2.30;;;6.10;71.90;4.30;98149.00;;;;5074043;28;20279;-81
2024/01/27 07:41:14;;;;;;;5.33;3.03;;;6.10;72.70;4.40;98150.00;;;;5072880;28;20219;-82
2024/01/27 07:43:42;;;;;;;4.13;2.70;;;6.10;72.70;4.40;98156.00;;;;5072888;28;20203;-82
2024/01/27 07:46:09;;;;;;;2.97;2.47;;;6.10;72.70;4.40;98166.00;;;;5072583;28;20192;-82
2024/01/27 07:48:36;;;;;;;2.93;2.13;;;6.10;72.70;4.40;98164.00;;;;5072569;28;20208;-82
2024/01/27 07:51:07;;;;;;;2.93;2.03;;;6.10;72.70;4.50;98168.00;;;;5069790;28;20200;-82
2024/01/27 07:53:36;;;;;;;12.17;2.47;;;6.20;72.80;4.40;98162.00;;;;5073575;28;20212;-82
2024/01/27 07:56:03;;;;;;;3.03;1.90;;;6.20;72.80;4.50;98167.00;;;;5073741;28;20184;-82
2024/01/27 07:58:30;;;;;;;5.47;2.17;;;6.20;72.90;4.50;98168.00;;;;5073761;28;20219;-82
2024/01/27 08:01:00;;;;;;;5.27;2.47;;;6.20;72.80;4.50;98165.00;;;;5072734;28;20731;-82
2024/01/27 08:03:28;;;;;;;11.17;2.60;;;6.30;73.60;4.60;98171.00;;;;5085977;28;20202;-82
2024/01/27 08:05:55;;;;;;;3.17;2.27;;;6.30;72.80;4.60;98163.00;;;;5070110;28;20771;-82
2024/01/27 08:08:23;;;;;;;9.70;3.23;;;6.30;72.80;4.60;98160.00;;;;5071246;28;20195;-82
2024/01/27 08:10:51;;;;;;;3.47;2.43;;;6.30;72.90;4.60;98168.00;;;;5066979;28;20219;-82
2024/01/27 08:13:19;;;;;;;4.77;2.40;;;6.30;73.00;4.70;98170.00;;;;5071018;28;20319;-82
2024/01/27 08:15:46;;;;;;;4.37;2.23;;;6.40;73.00;4.70;98172.00;;;;5069786;28;20278;-82
2024/01/27 08:18:13;;;;;;;4.20;2.60;;;6.40;73.00;4.70;98174.00;;;;5071061;28;20283;-82
2024/01/27 08:20:41;;;;;;;5.43;2.70;;;6.40;73.10;4.80;98174.00;;;;5072408;28;20215;-82
2024/01/27 08:23:09;;;;;;;4.87;2.47;;;6.50;73.20;4.80;98178.00;;;;5072717;28;20246;-82
2024/01/27 08:25:36;;;;;;;3.30;2.30;;;6.50;73.30;4.90;98180.00;;;;5071944;28;20195;-82
2024/01/27 08:28:06;;;;;;;3.43;2.10;;;6.60;73.40;5.00;98181.00;;;;5073199;28;20637;-82
2024/01/27 08:30:34;;;;;;;4.67;2.57;;;6.60;73.50;5.00;98186.00;;;;5072911;28;20220;-82
2024/01/27 08:33:02;;;;;;;2.50;2.27;;;6.60;73.60;5.10;98184.00;;;;5071401;28;20188;-82
2024/01/27 08:35:32;;;;;;;3.93;2.47;;;6.70;73.70;5.10;98185.00;;;;5071431;28;20195;-82
2024/01/27 08:38:00;;;;;;;7.67;3.03;;;6.70;73.70;5.20;98187.00;;;;5071719;28;20222;-81
2024/01/27 08:40:27;;;;;;;4.17;2.53;;;6.80;73.80;5.30;98190.00;;;;5088832;28;20692;-82
2024/01/27 08:42:54;;;;;;;10.00;3.00;;;6.90;74.10;5.40;98193.00;;;;5054874;28;20184;-82
2024/01/27 08:45:23;;;;;;;2.73;2.30;;;6.90;74.10;5.50;98193.00;;;;5072973;28;20226;-82
2024/01/27 08:47:51;;;;;;;3.53;2.03;;;7.00;74.20;5.60;98189.00;;;;5066538;28;20200;-83
2024/01/27 08:50:18;;;;;;;4.70;2.37;;;7.10;74.30;5.70;98192.00;;;;5071322;28;20646;-82
2024/01/27 08:52:48;;;;;;;8.70;2.30;;;7.20;74.30;5.80;98203.00;;;;5072527;28;20245;-82
2024/01/27 08:55:18;;;;;;;12.70;2.40;;;7.30;74.30;5.90;98195.00;;;;5072642;28;20971;-82
2024/01/27 08:57:45;;;;;;;6.47;2.30;;;7.40;74.50;6.00;98211.00;;;;5070411;28;20207;-82
2024/01/27 09:00:15;;;;;;;2.07;1.87;;;7.50;74.30;6.20;98217.00;;;;5074125;28;20216;-82
2024/01/27 09:02:44;;;;;;;3.07;2.00;;;7.60;74.50;6.30;98214.00;;;;5074138;28;20199;-82
2024/01/27 09:05:14;;;;;;;5.27;2.40;;;7.70;74.10;6.40;98210.00;;;;5069437;28;20286;-82
2024/01/27 09:07:45;;;;;;;9.23;2.27;;;7.90;73.90;6.60;98215.00;;;;5069967;28;20191;-82
2024/01/27 09:10:15;;;;;;;6.10;2.27;;;8.00;74.10;6.80;98208.00;;;;5068119;28;20208;-82
2024/01/27 09:12:43;;;;;;;11.77;2.57;;;8.10;73.90;6.90;98219.00;;;;5069461;28;20184;-82
2024/01/27 09:15:11;;;;;;;3.60;2.00;;;8.30;73.60;7.00;98213.00;;;;5068935;28;20208;-82
2024/01/27 09:17:39;;;;;;;4.20;2.17;;;8.40;73.30;7.20;98226.00;;;;5072415;28;20282;-82
2024/01/27 09:20:09;;;;;;;4.70;1.80;;;8.60;73.10;7.30;98229.00;;;;5072589;28;20720;-82
2024/01/27 09:22:37;;;;;;;6.67;2.27;;;8.70;72.70;7.40;98227.00;;;;5068826;28;20212;-82
2024/01/27 09:25:08;;;;;;;4.20;1.80;;;8.80;72.30;7.50;98217.00;;;;5071200;28;20241;-82
2024/01/27 09:27:35;;;;;;;4.73;1.63;;;8.90;71.90;7.60;98212.00;;;;5072629;28;20235;-82
2024/01/27 09:30:03;;;;;;;3.87;1.93;;;9.00;71.60;7.70;98218.00;;;;5071912;28;20291;-82
2024/01/27 09:32:30;;;;;;;4.80;1.67;;;9.10;71.50;7.80;98231.00;;;;5071163;28;20710;-82
2024/01/27 09:34:58;;;;;;;6.93;1.90;;;9.30;71.40;7.80;98241.00;;;;5072301;28;20239;-82
2024/01/27 09:37:26;;;;;;;2.57;1.60;;;9.30;70.90;7.90;98250.00;;;;5071872;28;20241;-82
2024/01/27 09:39:54;;;;;;;4.30;2.00;;;9.30;70.30;8.00;98253.00;;;;5066185;28;20265;-82
2024/01/27 09:42:22;;;;;;;3.47;1.93;;;9.40;70.30;8.00;98259.00;;;;5071010;28;20216;-82
2024/01/27 09:44:50;;;;;;;4.80;1.57;;;9.50;70.30;8.10;98253.00;;;;5072188;28;20655;-82
2024/01/27 09:47:19;;;;;;;9.67;2.30;;;9.50;70.10;8.30;98265.00;;;;5070818;28;20226;-82
2024/01/27 09:49:48;;;;;;;4.17;2.30;;;9.60;70.50;8.40;98264.00;;;;5070755;28;20211;-82
2024/01/27 09:52:15;;;;;;;9.13;2.10;;;9.80;71.20;8.70;98258.00;;;;5069695;28;20275;-82
2024/01/27 09:54:44;;;;;;;5.03;1.80;;;9.90;71.80;8.90;98268.00;;;;5070861;28;20223;-82
2024/01/27 09:57:13;;;;;;;3.67;2.07;;;10.20;72.30;9.20;98272.00;;;;5069239;28;20195;-82
2024/01/27 09:59:44;;;;;;;3.30;1.50;;;10.40;72.40;9.50;98272.00;;;;5068785;28;20227;-82
2024/01/27 10:02:14;;;;;;;2.93;1.60;;;10.70;72.40;9.80;98280.00;;;;5072991;28;20188;-82
2024/01/27 10:04:42;;;;;;;6.20;2.00;;;11.00;72.40;10.00;98275.00;;;;5070048;28;20226;-82
2024/01/27 10:07:10;;;;;;;5.23;1.80;;;11.30;71.90;10.30;98286.00;;;;5068461;28;20253;-82
2024/01/27 10:09:37;;;;;;;4.73;1.70;;;11.60;72.00;10.50;98295.00;;;;5073487;28;20215;-82
2024/01/27 10:12:08;;;;;;;5.40;1.83;;;11.80;71.40;10.70;98290.00;;;;5073514;28;20184;-82
2024/01/27 10:14:46;;;;;;;4.33;1.73;;;12.10;70.40;11.00;98293.00;;;;5075524;28;20230;-82
2024/01/27 10:17:13;;;;;;;3.87;1.97;;;12.30;69.40;11.20;98290.00;;;;5075818;28;20274;-82
2024/01/27 10:19:40;;;;;;;15.33;2.20;;;12.60;70.20;11.50;98286.00;;;;5075108;28;20235;-81
2024/01/27 10:22:08;;;;;;;4.93;2.00;;;12.80;70.00;11.70;98282.00;;;;5075460;28;20191;-82
2024/01/27 10:24:36;;;;;;;5.13;2.87;;;13.00;69.20;11.90;98284.00;;;;5074307;28;20196;-82
2024/01/27 10:27:07;;;;;;;4.37;2.03;;;13.20;68.50;12.10;98278.00;;;;5074245;28;20276;-83
2024/01/27 10:29:34;;;;;;;3.37;1.67;;;13.40;67.60;12.20;98279.00;;;;5075727;28;20199;-82
2024/01/27 10:32:10;;;;;;;10.40;2.33;;;13.60;67.30;12.40;98285.00;;;;5075134;28;20215;-82
2024/01/27 10:34:37;;;;;;;4.47;2.00;;;13.70;65.80;12.50;98274.00;;;;5070374;28;20218;-82
2024/01/27 10:37:05;;;;;;;3.40;2.10;;;13.80;66.10;12.60;98273.00;;;;5074255;28;20649;-83
2024/01/27 10:39:32;;;;;;;6.13;2.27;;;13.90;65.20;12.60;98270.00;;;;5072594;28;20268;-82
2024/01/27 10:42:07;;;;;;;10.17;1.80;;;14.00;64.40;12.70;98260.00;;;;5075063;28;20711;-82
2024/01/27 10:44:40;;;;;;;3.80;1.60;;;14.10;63.80;12.70;98255.00;;;;5072739;28;20191;-82
2024/01/27 10:47:18;;;;;;;15.73;2.23;;;14.10;64.20;12.70;98248.00;;;;5074883;28;20203;-82
2024/01/27 10:49:48;;;;;;;14.40;3.03;;;14.10;64.10;12.80;98250.00;;;;5074041;28;20204;-82
2024/01/27 10:52:22;;;;;;;5.27;1.90;;;14.20;63.70;12.80;98250.00;;;;5089558;28;20192;-82
2024/01/27 10:54:51;;;;;;;5.90;1.90;;;14.20;63.10;12.80;98256.00;;;;5072490;28;20246;-82
2024/01/27 10:57:22;;;;;;;4.27;2.27;;;14.20;62.40;12.70;98247.00;;;;5072558;28;20942;-82
2024/01/27 10:59:53;;;;;;;4.57;1.93;;;14.10;61.90;12.60;98248.00;;;;5072951;28;20644;-82
2024/01/27 11:02:22;;;;;;;10.07;2.60;;;14.00;61.70;12.50;98250.00;;;;5075725;28;20278;-82
2024/01/27 11:04:50;;;;;;;3.43;2.00;;;13.90;61.30;12.40;98248.00;;;;5072950;28;20208;-82
2024/01/27 11:07:22;;;;;;;5.80;2.03;;;13.80;61.20;12.30;98247.00;;;;5073198;28;20726;-82
2024/01/27 11:09:52;;;;;;;6.40;3.33;;;13.70;60.80;12.10;98243.00;;;;5074437;28;20235;-82